createdAt,value
2023-05-05T00:01:35.728Z,9.15
2023-05-05T00:04:03.014Z,14.50
2023-05-05T00:06:29.867Z,11.37
2023-05-05T00:08:56.690Z,13.10
2023-05-05T00:11:23.694Z,11.90
2023-05-05T00:13:51.591Z,11.25
2023-05-05T00:16:18.847Z,10.30
2023-05-05T00:18:45.741Z,9.57
2023-05-05T00:21:12.916Z,10.82
2023-05-05T00:23:40.125Z,14.95
2023-05-05T00:26:06.930Z,13.82
2023-05-05T00:28:34.359Z,14.35
2023-05-05T00:31:01.569Z,11.97
2023-05-05T00:33:29.022Z,11.95
2023-05-05T00:35:56.211Z,13.00
2023-05-05T00:38:23.557Z,11.43
2023-05-05T00:40:50.531Z,15.15
2023-05-05T00:43:17.886Z,13.27
2023-05-05T00:45:47.807Z,14.02
2023-05-05T00:48:16.924Z,18.65
2023-05-05T00:50:44.964Z,16.75
2023-05-05T00:53:12.300Z,18.42
2023-05-05T00:55:40.432Z,18.70
2023-05-05T00:58:07.686Z,17.52
2023-05-05T01:00:35.079Z,19.65
2023-05-05T01:03:02.206Z,19.50
2023-05-05T01:05:38.185Z,23.67
2023-05-05T01:08:29.048Z,18.97
2023-05-05T01:11:03.175Z,19.05
2023-05-05T01:14:01.469Z,17.95
2023-05-05T01:16:32.671Z,21.90
2023-05-05T01:18:59.482Z,17.58
2023-05-05T01:21:31.858Z,19.17
2023-05-05T01:24:19.361Z,16.85
2023-05-05T01:27:17.191Z,17.88
2023-05-05T01:30:00.990Z,17.15
2023-05-05T01:32:32.012Z,15.95
2023-05-05T01:35:10.024Z,18.10
2023-05-05T01:37:51.680Z,16.38
2023-05-05T01:40:25.009Z,13.75
2023-05-05T01:42:54.257Z,13.75
2023-05-05T01:45:24.841Z,14.43
2023-05-05T01:47:53.494Z,14.43
2023-05-05T01:50:21.414Z,15.07
2023-05-05T01:52:50.130Z,18.60
2023-05-05T01:55:18.557Z,13.35
2023-05-05T01:57:46.253Z,15.15
2023-05-05T02:00:16.753Z,14.57
2023-05-05T02:02:47.630Z,12.50
2023-05-05T02:05:16.537Z,11.55
2023-05-05T02:07:44.780Z,14.35
2023-05-05T02:10:13.647Z,15.88
2023-05-05T02:12:42.706Z,13.47
2023-05-05T02:15:11.233Z,13.75
2023-05-05T02:17:43.269Z,14.13
2023-05-05T02:20:14.145Z,14.15
2023-05-05T02:22:41.673Z,16.42
2023-05-05T02:25:09.714Z,13.60
2023-05-05T02:27:40.536Z,16.20
2023-05-05T02:30:11.866Z,15.20
2023-05-05T02:32:45.944Z,13.20
2023-05-05T02:35:22.628Z,15.98
2023-05-05T02:38:02.340Z,14.87
2023-05-05T02:40:35.559Z,13.45
2023-05-05T02:43:07.784Z,14.90
2023-05-05T02:45:34.779Z,13.52
2023-05-05T02:48:05.183Z,15.95
2023-05-05T02:50:36.952Z,14.77
2023-05-05T02:53:27.787Z,13.68
2023-05-05T02:56:08.112Z,15.32
2023-05-05T02:58:54.123Z,13.50
2023-05-05T03:01:59.781Z,16.17
2023-05-05T03:04:57.918Z,13.97
2023-05-05T03:07:31.313Z,15.60
2023-05-05T03:10:16.661Z,15.25
2023-05-05T03:12:55.026Z,11.50
2023-05-05T03:15:37.694Z,17.75
2023-05-05T03:18:08.496Z,14.07
2023-05-05T03:20:35.831Z,14.50
2023-05-05T03:23:08.142Z,13.38
2023-05-05T03:25:45.900Z,18.02
2023-05-05T03:28:21.224Z,16.30
2023-05-05T03:30:48.542Z,14.37
2023-05-05T03:33:17.783Z,17.30
2023-05-05T03:35:45.511Z,14.48
2023-05-05T03:38:14.122Z,16.02
2023-05-05T03:40:44.542Z,15.20
2023-05-05T03:43:15.206Z,13.43
2023-05-05T03:45:42.502Z,13.90
2023-05-05T03:48:09.976Z,12.95
2023-05-05T03:50:38.654Z,11.43
2023-05-05T03:53:05.453Z,12.32
2023-05-05T03:55:32.991Z,13.50
2023-05-05T03:58:00.186Z,13.57
2023-05-05T04:00:27.576Z,12.80
2023-05-05T04:02:56.055Z,16.02
2023-05-05T04:05:25.333Z,13.35
2023-05-05T04:07:52.746Z,11.80
2023-05-05T04:10:20.088Z,17.27
2023-05-05T04:12:47.305Z,12.77
2023-05-05T04:15:14.558Z,11.73
2023-05-05T04:17:41.847Z,10.73
2023-05-05T04:20:09.766Z,12.63
2023-05-05T04:22:37.378Z,14.30
2023-05-05T04:25:04.935Z,12.25
2023-05-05T04:27:31.769Z,13.90
2023-05-05T04:30:00.366Z,15.70
2023-05-05T04:32:27.725Z,15.57
2023-05-05T04:34:55.760Z,14.32
2023-05-05T04:37:25.187Z,12.75
2023-05-05T04:39:52.987Z,12.93
2023-05-05T04:42:20.606Z,13.65
2023-05-05T04:44:47.934Z,11.47
2023-05-05T04:47:15.660Z,8.18
2023-05-05T04:49:44.861Z,16.05
2023-05-05T04:52:14.835Z,14.77
2023-05-05T04:54:42.076Z,14.23
2023-05-05T04:57:09.028Z,15.00
2023-05-05T04:59:36.993Z,13.15
2023-05-05T05:02:04.368Z,10.88
2023-05-05T05:04:31.216Z,9.20
2023-05-05T05:06:59.309Z,11.93
2023-05-05T05:09:27.261Z,9.80
2023-05-05T05:11:54.573Z,11.95
2023-05-05T05:14:21.759Z,9.63
2023-05-05T05:16:52.206Z,11.20
2023-05-05T05:19:19.962Z,11.68
2023-05-05T05:21:47.311Z,15.27
2023-05-05T05:24:14.599Z,13.65
2023-05-05T05:26:41.947Z,13.20
2023-05-05T05:29:09.179Z,12.85
2023-05-05T05:31:36.896Z,11.52
2023-05-05T05:34:04.486Z,14.43
2023-05-05T05:36:32.119Z,13.60
2023-05-05T05:38:59.553Z,11.38
2023-05-05T05:41:26.799Z,11.85
2023-05-05T05:43:54.699Z,12.60
2023-05-05T05:46:22.189Z,12.87
2023-05-05T05:48:49.558Z,13.98
2023-05-05T05:51:17.356Z,12.93
2023-05-05T05:53:44.282Z,16.00
2023-05-05T05:56:11.596Z,11.63
2023-05-05T05:58:39.343Z,16.50
2023-05-05T06:01:07.455Z,17.27
2023-05-05T06:03:35.865Z,21.15
2023-05-05T06:06:03.580Z,17.85
2023-05-05T06:08:31.249Z,17.67
2023-05-05T06:11:00.543Z,16.73
2023-05-05T06:13:27.489Z,20.80
2023-05-05T06:15:54.461Z,23.30
2023-05-05T06:18:21.877Z,18.77
2023-05-05T06:20:52.390Z,17.52
2023-05-05T06:23:21.327Z,22.13
2023-05-05T06:25:55.298Z,21.90
2023-05-05T06:28:22.281Z,21.48
2023-05-05T06:30:49.505Z,21.73
2023-05-05T06:33:16.786Z,21.13
2023-05-05T06:35:43.573Z,22.63
2023-05-05T06:38:10.976Z,20.23
2023-05-05T06:40:38.007Z,23.00
2023-05-05T06:43:05.364Z,21.98
2023-05-05T06:45:36.900Z,25.33
2023-05-05T06:48:04.185Z,26.03
2023-05-05T06:50:31.370Z,24.52
2023-05-05T06:52:58.798Z,22.10
2023-05-05T06:55:26.115Z,24.20
2023-05-05T06:57:53.373Z,23.60
2023-05-05T07:00:22.145Z,26.50
2023-05-05T07:02:49.015Z,24.27
2023-05-05T07:05:15.887Z,22.63
2023-05-05T07:07:53.209Z,25.48
2023-05-05T07:10:20.638Z,20.65
2023-05-05T07:12:47.894Z,18.70
2023-05-05T07:15:26.892Z,24.38
2023-05-05T07:17:55.842Z,17.90
2023-05-05T07:20:22.828Z,20.38
2023-05-05T07:22:49.600Z,19.40
2023-05-05T07:25:16.899Z,19.83
2023-05-05T07:27:44.225Z,19.60
2023-05-05T07:30:14.747Z,20.75
2023-05-05T07:32:45.046Z,18.10
2023-05-05T07:35:12.359Z,18.17
2023-05-05T07:37:39.574Z,18.47
2023-05-05T07:40:07.345Z,16.83
2023-05-05T07:42:34.720Z,20.13
2023-05-05T07:45:01.956Z,17.48
2023-05-05T07:47:29.276Z,13.00
2023-05-05T07:49:56.868Z,14.67
2023-05-05T07:52:37.337Z,17.42
2023-05-05T07:55:11.205Z,16.88
2023-05-05T07:57:38.926Z,13.93
2023-05-05T08:00:06.538Z,12.68
2023-05-05T08:02:39.387Z,13.50
2023-05-05T08:05:07.452Z,13.70
2023-05-05T08:07:36.532Z,12.77
2023-05-05T08:10:03.832Z,12.32
2023-05-05T08:12:31.087Z,14.38
2023-05-05T08:14:58.305Z,13.13
2023-05-05T08:17:27.013Z,14.45
2023-05-05T08:19:54.117Z,13.07
2023-05-05T08:22:22.081Z,13.40
2023-05-05T08:24:48.882Z,14.25
2023-05-05T08:27:16.346Z,13.13
2023-05-05T08:29:43.654Z,10.30
2023-05-05T08:32:10.678Z,15.85
2023-05-05T08:34:37.480Z,12.52
2023-05-05T08:37:04.702Z,11.75
2023-05-05T08:39:31.589Z,14.57
2023-05-05T08:41:58.916Z,16.27
2023-05-05T08:44:27.203Z,10.93
2023-05-05T08:46:54.910Z,16.33
2023-05-05T08:49:22.598Z,12.30
2023-05-05T08:51:52.241Z,13.23
2023-05-05T08:54:20.334Z,11.93
2023-05-05T08:56:53.364Z,13.95
2023-05-05T08:59:25.125Z,13.15
2023-05-05T09:01:53.943Z,12.27
2023-05-05T09:04:21.045Z,13.60
2023-05-05T09:06:47.902Z,13.15
2023-05-05T09:09:15.541Z,10.50
2023-05-05T09:11:43.830Z,9.13
2023-05-05T09:14:11.003Z,11.93
2023-05-05T09:16:43.242Z,11.53
2023-05-05T09:19:10.511Z,10.38
2023-05-05T09:21:47.680Z,11.27
2023-05-05T09:24:15.617Z,10.65
2023-05-05T09:26:44.718Z,11.35
2023-05-05T09:29:21.410Z,12.27
2023-05-05T09:32:05.671Z,12.40
2023-05-05T09:34:36.442Z,15.32
2023-05-05T09:37:03.967Z,15.15
2023-05-05T09:39:31.334Z,16.23
2023-05-05T09:41:58.516Z,14.33
2023-05-05T09:44:36.384Z,12.27
2023-05-05T09:47:07.186Z,11.02
2023-05-05T09:49:39.421Z,13.95
2023-05-05T09:52:16.045Z,11.07
2023-05-05T09:54:43.775Z,15.50
2023-05-05T09:57:27.285Z,13.25
2023-05-05T09:59:59.694Z,7.25
2023-05-05T10:02:38.392Z,14.13
2023-05-05T10:05:07.207Z,10.40
2023-05-05T10:07:34.730Z,11.03
2023-05-05T10:10:02.131Z,14.55
2023-05-05T10:12:31.208Z,10.85
2023-05-05T10:15:01.271Z,12.30
2023-05-05T10:17:30.980Z,9.30
2023-05-05T10:19:59.835Z,9.93
2023-05-05T10:22:36.059Z,10.10
2023-05-05T10:25:16.074Z,11.40
2023-05-05T10:27:46.370Z,11.50
2023-05-05T10:30:13.593Z,11.88
2023-05-05T10:33:18.520Z,17.13
2023-05-05T10:35:57.214Z,13.23
2023-05-05T10:38:26.856Z,9.68
2023-05-05T10:40:56.606Z,9.40
2023-05-05T10:43:24.534Z,11.57
2023-05-05T10:45:52.399Z,10.45
2023-05-05T10:48:41.990Z,15.67
2023-05-05T10:51:35.283Z,11.80
2023-05-05T10:54:12.452Z,11.55
2023-05-05T10:56:42.101Z,15.63
2023-05-05T10:59:37.081Z,10.15
2023-05-05T11:02:30.510Z,12.23
2023-05-05T11:05:16.982Z,9.70
2023-05-05T11:07:49.214Z,11.60
2023-05-05T11:10:18.841Z,8.00
2023-05-05T11:12:52.267Z,9.85
2023-05-05T11:15:28.413Z,8.93
2023-05-05T11:17:56.557Z,11.10
2023-05-05T11:20:52.329Z,7.30
2023-05-05T11:23:22.582Z,7.57
2023-05-05T11:25:51.363Z,12.20
2023-05-05T11:28:24.839Z,11.00
2023-05-05T11:30:58.549Z,8.50
2023-05-05T11:33:26.389Z,8.50
2023-05-05T11:35:58.152Z,7.68
2023-05-05T11:38:37.512Z,11.20
2023-05-05T11:41:10.418Z,10.00
2023-05-05T11:43:37.726Z,10.50
2023-05-05T11:46:15.568Z,12.65
2023-05-05T11:48:46.639Z,8.93
2023-05-05T11:51:19.781Z,11.13
2023-05-05T11:53:48.643Z,12.23
2023-05-05T11:56:19.323Z,10.50
2023-05-05T11:58:47.118Z,14.70
2023-05-05T12:01:14.713Z,11.13
2023-05-05T12:03:42.209Z,9.48
2023-05-05T12:06:10.052Z,13.30
2023-05-05T12:08:40.607Z,9.80
2023-05-05T12:11:09.188Z,11.73
2023-05-05T12:13:36.507Z,8.55
2023-05-05T12:16:14.239Z,11.02
2023-05-05T12:18:41.851Z,10.37
2023-05-05T12:21:19.350Z,9.75
2023-05-05T12:23:46.581Z,11.75
2023-05-05T12:26:30.468Z,10.30
2023-05-05T12:29:00.962Z,9.50
2023-05-05T12:31:41.686Z,11.20
2023-05-05T12:34:10.584Z,7.93
2023-05-05T12:36:38.101Z,14.52
2023-05-05T12:39:05.432Z,10.48
2023-05-05T12:41:33.055Z,10.55
2023-05-05T12:44:01.516Z,10.20
2023-05-05T12:46:32.090Z,9.13
2023-05-05T12:49:07.049Z,9.80
2023-05-05T12:51:35.177Z,8.25
2023-05-05T12:54:03.012Z,10.43
2023-05-05T12:56:41.117Z,8.77
2023-05-05T12:59:08.391Z,8.35
2023-05-05T13:01:52.008Z,10.80
2023-05-05T13:04:20.016Z,11.13
2023-05-05T13:06:48.753Z,9.65
2023-05-05T13:09:33.899Z,8.77
2023-05-05T13:12:03.270Z,10.40
2023-05-05T13:14:33.478Z,9.65
2023-05-05T13:17:00.781Z,9.00
2023-05-05T13:19:27.752Z,11.73
2023-05-05T13:21:55.595Z,6.40
2023-05-05T13:24:31.666Z,7.78
2023-05-05T13:27:05.960Z,7.95
2023-05-05T13:29:33.586Z,8.43
2023-05-05T13:32:01.234Z,12.52
2023-05-05T13:34:28.497Z,8.37
2023-05-05T13:36:55.747Z,10.10
2023-05-05T13:39:22.873Z,9.27
2023-05-05T13:41:49.736Z,7.47
2023-05-05T13:44:17.159Z,7.97
2023-05-05T13:46:44.556Z,8.27
2023-05-05T13:49:11.921Z,7.90
2023-05-05T13:51:39.347Z,8.95
2023-05-05T13:54:07.031Z,7.93
2023-05-05T13:56:34.736Z,8.07
2023-05-05T13:59:02.485Z,13.30
2023-05-05T14:01:30.209Z,11.38
2023-05-05T14:03:57.985Z,12.15
2023-05-05T14:06:25.996Z,8.93
2023-05-05T14:08:53.313Z,9.05
2023-05-05T14:11:21.010Z,6.23
2023-05-05T14:13:48.944Z,8.50
2023-05-05T14:16:17.249Z,6.80
2023-05-05T14:18:44.519Z,7.55
2023-05-05T14:21:12.163Z,8.07
2023-05-05T14:23:39.463Z,5.10
2023-05-05T14:26:06.469Z,11.20
2023-05-05T14:28:33.672Z,7.38
2023-05-05T14:31:01.169Z,5.93
2023-05-05T14:33:28.447Z,8.65
2023-05-05T14:35:56.055Z,7.27
2023-05-05T14:38:23.385Z,6.75
2023-05-05T14:40:50.319Z,6.15
2023-05-05T14:43:17.543Z,5.72
2023-05-05T14:45:44.493Z,5.65
2023-05-05T14:48:11.536Z,4.80
2023-05-05T14:50:39.935Z,6.57
2023-05-05T14:53:07.462Z,5.95
2023-05-05T14:55:34.727Z,4.78
2023-05-05T14:58:02.206Z,3.80
2023-05-05T15:00:29.158Z,15.33
2023-05-05T15:02:56.520Z,5.13
2023-05-05T15:05:23.410Z,4.97
2023-05-05T15:07:50.836Z,4.90
2023-05-05T15:10:20.322Z,3.63
2023-05-05T15:12:49.288Z,3.70
2023-05-05T15:15:16.189Z,4.45
2023-05-05T15:17:43.468Z,3.00
2023-05-05T15:20:11.115Z,7.70
2023-05-05T15:22:38.141Z,5.45
2023-05-05T15:25:08.957Z,6.67
2023-05-05T15:27:37.976Z,7.38
2023-05-05T15:30:05.903Z,4.15
2023-05-05T15:32:33.403Z,4.55
2023-05-05T15:35:00.591Z,6.72
2023-05-05T15:37:28.895Z,6.50
2023-05-05T15:39:56.338Z,5.38
2023-05-05T15:42:23.135Z,4.07
2023-05-05T15:44:50.592Z,3.85
2023-05-05T15:47:17.911Z,5.15
2023-05-05T15:49:44.764Z,6.17
2023-05-05T15:52:12.809Z,4.85
2023-05-05T15:54:39.729Z,4.53
2023-05-05T15:57:06.725Z,4.22
2023-05-05T15:59:33.525Z,4.88
2023-05-05T16:02:00.783Z,3.90
2023-05-05T16:04:27.750Z,4.70
2023-05-05T16:06:55.435Z,6.20
2023-05-05T16:09:22.368Z,4.97
2023-05-05T16:11:49.347Z,6.55
2023-05-05T16:14:16.200Z,4.73
2023-05-05T16:16:43.882Z,8.52
2023-05-05T16:19:10.782Z,5.40
2023-05-05T16:21:38.086Z,4.97
2023-05-05T16:24:05.473Z,6.43
2023-05-05T16:26:32.298Z,4.60
2023-05-05T16:28:59.100Z,5.25
2023-05-05T16:31:26.054Z,4.90
2023-05-05T16:33:52.878Z,4.70
2023-05-05T16:36:20.787Z,4.95
2023-05-05T16:38:47.614Z,6.70
2023-05-05T16:41:14.557Z,4.20
2023-05-05T16:43:41.488Z,5.53
2023-05-05T16:46:08.465Z,4.43
2023-05-05T16:48:35.417Z,6.20
2023-05-05T16:51:02.386Z,5.07
2023-05-05T16:53:29.653Z,4.00
2023-05-05T16:55:56.588Z,5.28
2023-05-05T16:58:23.848Z,5.22
2023-05-05T17:00:51.853Z,5.20
2023-05-05T17:03:20.335Z,5.50
2023-05-05T17:05:49.982Z,5.25
2023-05-05T17:08:17.234Z,5.50
2023-05-05T17:10:45.649Z,4.47
2023-05-05T17:13:13.934Z,3.65
2023-05-05T17:15:41.380Z,5.00
2023-05-05T17:18:08.758Z,3.67
2023-05-05T17:20:36.386Z,5.30
2023-05-05T17:23:03.367Z,5.45
2023-05-05T17:25:30.357Z,4.45
2023-05-05T17:27:57.701Z,4.57
2023-05-05T17:30:24.758Z,4.82
2023-05-05T17:32:51.881Z,5.75
2023-05-05T17:35:18.813Z,5.18
2023-05-05T17:37:45.789Z,5.65
2023-05-05T17:40:12.699Z,5.80
2023-05-05T17:42:39.714Z,5.13
2023-05-05T17:45:07.812Z,5.57
2023-05-05T17:47:35.280Z,6.30
2023-05-05T17:50:02.412Z,5.82
2023-05-05T17:52:29.541Z,4.67
2023-05-05T17:54:56.902Z,5.50
2023-05-05T17:57:23.744Z,5.10
2023-05-05T17:59:51.924Z,7.22
2023-05-05T18:02:19.301Z,5.68
2023-05-05T18:04:46.570Z,5.73
2023-05-05T18:07:14.650Z,5.82
2023-05-05T18:09:42.377Z,5.65
2023-05-05T18:12:09.308Z,4.72
2023-05-05T18:14:36.351Z,5.05
2023-05-05T18:17:03.425Z,4.77
2023-05-05T18:19:30.563Z,6.43
2023-05-05T18:21:57.462Z,5.95
2023-05-05T18:24:24.450Z,8.40
2023-05-05T18:26:52.463Z,7.22
2023-05-05T18:29:21.584Z,6.77
2023-05-05T18:31:51.594Z,7.00
2023-05-05T18:34:19.288Z,8.82
2023-05-05T18:36:46.717Z,5.93
2023-05-05T18:39:14.484Z,6.00
2023-05-05T18:41:41.878Z,6.60
2023-05-05T18:44:09.131Z,6.50
2023-05-05T18:46:36.359Z,6.07
2023-05-05T18:49:03.748Z,6.40
2023-05-05T18:51:32.139Z,7.70
2023-05-05T18:54:01.038Z,5.73
2023-05-05T18:56:28.436Z,8.27
2023-05-05T18:58:55.684Z,5.00
2023-05-05T19:01:23.299Z,5.95
2023-05-05T19:03:50.933Z,6.55
2023-05-05T19:06:18.289Z,6.90
2023-05-05T19:08:45.964Z,6.43
2023-05-05T19:11:14.791Z,6.03
2023-05-05T19:13:42.613Z,5.88
2023-05-05T19:16:11.197Z,7.00
2023-05-05T19:18:38.973Z,10.50
2023-05-05T19:21:06.270Z,6.22
2023-05-05T19:23:34.571Z,8.00
2023-05-05T19:26:03.410Z,7.28
2023-05-05T19:28:30.954Z,7.13
2023-05-05T19:30:58.341Z,6.03
2023-05-05T19:33:25.687Z,4.93
2023-05-05T19:35:52.547Z,6.32
2023-05-05T19:38:19.760Z,6.35
2023-05-05T19:40:46.639Z,6.68
2023-05-05T19:43:14.086Z,5.93
2023-05-05T19:45:41.690Z,7.32
2023-05-05T19:48:09.033Z,8.10
2023-05-05T19:50:36.248Z,7.32
2023-05-05T19:53:04.494Z,6.68
2023-05-05T19:55:32.263Z,8.30
2023-05-05T19:57:59.503Z,6.72
2023-05-05T20:00:26.807Z,6.43
2023-05-05T20:02:54.175Z,8.00
2023-05-05T20:05:21.586Z,7.82
2023-05-05T20:07:48.794Z,7.17
2023-05-05T20:10:16.612Z,10.25
2023-05-05T20:12:48.158Z,7.95
2023-05-05T20:15:19.849Z,7.90
2023-05-05T20:17:48.101Z,8.35
2023-05-05T20:20:21.951Z,7.43
2023-05-05T20:22:49.637Z,7.80
2023-05-05T20:25:17.220Z,8.73
2023-05-05T20:27:45.525Z,9.45
2023-05-05T20:30:13.142Z,8.25
2023-05-05T20:32:40.741Z,7.73
2023-05-05T20:35:08.329Z,8.20
2023-05-05T20:37:35.807Z,8.80
2023-05-05T20:40:03.787Z,8.68
2023-05-05T20:42:30.708Z,11.70
2023-05-05T20:44:57.982Z,7.60
2023-05-05T20:47:26.728Z,7.70
2023-05-05T20:49:54.319Z,8.85
2023-05-05T20:52:21.630Z,8.43
2023-05-05T20:54:48.468Z,10.23
2023-05-05T20:57:15.739Z,8.47
2023-05-05T20:59:42.998Z,10.23
2023-05-05T21:02:10.129Z,8.77
2023-05-05T21:04:37.524Z,8.65
2023-05-05T21:07:04.716Z,10.05
2023-05-05T21:09:32.019Z,8.10
2023-05-05T21:11:59.280Z,9.68
2023-05-05T21:14:26.623Z,9.90
2023-05-05T21:16:53.920Z,8.10
2023-05-05T21:19:21.617Z,9.57
2023-05-05T21:21:49.395Z,9.87
2023-05-05T21:24:16.424Z,8.32
2023-05-05T21:26:47.104Z,9.45
2023-05-05T21:29:13.988Z,8.02
2023-05-05T21:31:41.280Z,9.82
2023-05-05T21:34:08.703Z,10.43
2023-05-05T21:36:36.788Z,9.57
2023-05-05T21:39:04.102Z,13.20
2023-05-05T21:41:31.331Z,10.82
2023-05-05T21:43:58.480Z,9.00
2023-05-05T21:46:26.047Z,12.47
2023-05-05T21:48:53.297Z,11.25
2023-05-05T21:51:20.127Z,12.30
2023-05-05T21:53:46.879Z,11.57
2023-05-05T21:56:14.249Z,10.77
2023-05-05T21:58:41.321Z,10.17
2023-05-05T22:01:08.711Z,9.48
2023-05-05T22:03:36.268Z,11.70
2023-05-05T22:06:03.615Z,9.13
2023-05-05T22:08:30.928Z,10.70
2023-05-05T22:10:57.769Z,13.60
2023-05-05T22:13:25.021Z,11.30
2023-05-05T22:15:52.356Z,11.98
2023-05-05T22:18:19.183Z,12.93
2023-05-05T22:20:46.912Z,11.07
2023-05-05T22:23:14.173Z,10.77
2023-05-05T22:25:41.122Z,10.57
2023-05-05T22:28:08.355Z,14.05
2023-05-05T22:30:35.271Z,13.10
2023-05-05T22:33:02.757Z,10.32
2023-05-05T22:35:30.076Z,9.53
2023-05-05T22:37:57.393Z,9.43
2023-05-05T22:40:24.607Z,14.65
2023-05-05T22:42:51.440Z,12.35
2023-05-05T22:45:18.728Z,10.30
2023-05-05T22:47:46.050Z,13.30
2023-05-05T22:50:12.883Z,11.80
2023-05-05T22:52:40.096Z,14.57
2023-05-05T22:55:07.646Z,10.18
2023-05-05T22:57:36.274Z,11.20
2023-05-05T23:00:05.290Z,9.93
2023-05-05T23:02:32.646Z,11.15
2023-05-05T23:04:59.900Z,10.13
2023-05-05T23:07:27.166Z,9.32
2023-05-05T23:09:54.203Z,13.13
2023-05-05T23:12:21.459Z,12.80
2023-05-05T23:14:49.941Z,13.57
2023-05-05T23:17:17.184Z,12.57
2023-05-05T23:19:47.842Z,12.32
2023-05-05T23:22:15.218Z,11.05
2023-05-05T23:24:42.487Z,16.43
2023-05-05T23:27:09.303Z,13.57
2023-05-05T23:29:36.209Z,13.00
2023-05-05T23:32:03.469Z,12.88
2023-05-05T23:34:30.712Z,15.07
2023-05-05T23:36:58.138Z,16.33
2023-05-05T23:39:25.349Z,12.73
2023-05-05T23:41:52.233Z,13.95
2023-05-05T23:44:19.428Z,15.13
2023-05-05T23:46:46.510Z,14.10
2023-05-05T23:49:13.975Z,13.33
2023-05-05T23:51:41.100Z,12.93
2023-05-05T23:54:07.910Z,11.85
2023-05-05T23:56:34.681Z,13.77
2023-05-05T23:59:01.902Z,17.33
